Time;durP1;ratioP1;P1;durP2;ratioP2;P2;SDS_P1;SDS_P2;PMS_P1;PMS_P2;Temp;Humidity;BMP_temperature;BMP_pressure;BME280_temperature;BME280_humidity;BME280_pressure;Samples;Min_cycle;Max_cycle;Signal;HPM_P1;HPM_P2
2023/04/06 00:02:19;;;;;;;7.20;5.67;;;;;;;2.26;nan;98342.38;5032781;28;20268;-75
2023/04/06 00:04:46;;;;;;;9.50;6.83;;;;;;;2.31;nan;98344.53;5033028;28;20190;-75
2023/04/06 00:07:12;;;;;;;8.03;6.60;;;;;;;2.33;nan;98339.94;5033363;28;20740;-75
2023/04/06 00:09:38;;;;;;;8.93;7.00;;;;;;;2.28;nan;98332.56;5033271;28;20237;-75
2023/04/06 00:12:05;;;;;;;10.20;7.40;;;;;;;2.30;nan;98340.28;5032756;28;20294;-75
2023/04/06 00:14:31;;;;;;;12.93;8.23;;;;;;;2.24;nan;98333.88;5033064;28;20202;-75
2023/04/06 00:16:58;;;;;;;11.03;8.47;;;;;;;2.28;nan;98336.97;5033217;28;20210;-75
2023/04/06 00:19:24;;;;;;;12.53;8.30;;;;;;;2.26;nan;98331.88;5032833;28;20642;-75
2023/04/06 00:21:51;;;;;;;10.77;7.90;;;;;;;2.30;nan;98335.03;5033002;28;20238;-75
2023/04/06 00:24:17;;;;;;;10.10;8.33;;;;;;;2.34;nan;98333.75;5033048;28;20232;-75
2023/04/06 00:26:43;;;;;;;14.27;8.70;;;;;;;2.25;nan;98329.47;5033053;28;20297;-75
2023/04/06 00:29:10;;;;;;;11.73;8.07;;;;;;;2.23;nan;98328.78;5033139;28;20296;-75
2023/04/06 00:31:36;;;;;;;11.93;8.77;;;;;;;2.20;nan;98329.09;5032842;28;20638;-75
2023/04/06 00:34:03;;;;;;;13.83;9.83;;;;;;;2.19;nan;98322.19;5032912;28;20316;-75
2023/04/06 00:36:29;;;;;;;12.70;8.90;;;;;;;2.20;nan;98329.09;5036312;28;20225;-75
2023/04/06 00:38:56;;;;;;;12.70;9.07;;;;;;;2.13;nan;98334.19;5036508;28;20209;-75
2023/04/06 00:41:22;;;;;;;11.33;8.20;;;;;;;2.06;nan;98329.69;5036482;28;20687;-75
2023/04/06 00:43:49;;;;;;;14.73;8.80;;;;;;;2.08;nan;98322.50;5019017;28;20259;-75
2023/04/06 00:46:15;;;;;;;12.00;8.73;;;;;;;2.14;nan;98321.88;5036704;28;20202;-75
2023/04/06 00:48:42;;;;;;;11.97;8.23;;;;;;;2.09;nan;98321.53;5036654;28;20237;-75
2023/04/06 00:51:08;;;;;;;12.33;8.70;;;;;;;2.09;nan;98316.28;5036565;28;20237;-75
2023/04/06 00:53:35;;;;;;;10.90;8.73;;;;;;;2.03;nan;98317.72;5018897;28;20320;-75
2023/04/06 00:56:01;;;;;;;11.83;9.13;;;;;;;2.02;nan;98308.22;5036141;28;20608;-75
2023/04/06 00:58:28;;;;;;;10.03;7.93;;;;;;;1.96;nan;98313.28;5036091;28;20297;-75
2023/04/06 01:00:54;;;;;;;14.53;8.87;;;;;;;1.87;nan;98309.84;5036400;28;20292;-75
2023/04/06 01:03:21;;;;;;;11.07;8.83;;;;;;;1.94;nan;98307.41;5035899;28;20320;-75
2023/04/06 01:05:47;;;;;;;14.57;9.17;;;;;;;1.95;nan;98314.28;5036303;28;20629;-75
2023/04/06 01:08:14;;;;;;;11.27;8.90;;;;;;;1.99;nan;98313.78;5035984;28;20732;-75
2023/04/06 01:10:41;;;;;;;11.83;9.43;;;;;;;1.94;nan;98312.63;5035901;28;20218;-76
2023/04/06 01:13:08;;;;;;;12.20;10.07;;;;;;;1.90;nan;98308.69;5035772;28;20226;-75
2023/04/06 01:15:38;;;;;;;11.00;8.70;;;;;;;1.93;nan;98303.09;5035973;28;20312;-75
2023/04/06 01:18:06;;;;;;;10.53;9.30;;;;;;;1.86;nan;98307.34;5035704;28;20228;-75
2023/04/06 01:20:33;;;;;;;11.77;9.73;;;;;;;1.86;nan;98302.13;5035931;28;20206;-75
2023/04/06 01:22:59;;;;;;;14.27;9.13;;;;;;;1.83;nan;98300.63;5035407;28;20320;-75
2023/04/06 01:25:26;;;;;;;12.67;9.73;;;;;;;1.85;nan;98303.09;5035627;28;20202;-75
2023/04/06 01:27:52;;;;;;;15.07;8.80;;;;;;;1.85;nan;98303.09;5035594;28;20740;-75
2023/04/06 01:30:18;;;;;;;10.30;9.20;;;;;;;1.77;nan;98301.28;5036336;28;20248;-75
2023/04/06 01:32:45;;;;;;;10.50;9.40;;;;;;;1.76;nan;98299.59;5035679;28;20261;-75
2023/04/06 01:35:11;;;;;;;12.03;8.97;;;;;;;1.78;nan;98299.47;5035692;28;20233;-75
2023/04/06 01:37:38;;;;;;;12.13;9.00;;;;;;;1.75;nan;98302.41;5035683;28;20301;-75
2023/04/06 01:40:05;;;;;;;12.53;9.67;;;;;;;1.62;nan;98292.34;5035391;28;20683;-75
2023/04/06 01:42:31;;;;;;;10.97;9.00;;;;;;;1.62;nan;98286.31;5035216;28;20280;-75
2023/04/06 01:44:58;;;;;;;10.77;8.90;;;;;;;1.57;nan;98291.19;5035514;28;20241;-75
2023/04/06 01:47:24;;;;;;;13.20;9.10;;;;;;;1.62;nan;98286.31;5034605;28;20632;-75
2023/04/06 01:49:51;;;;;;;10.50;9.17;;;;;;;1.57;nan;98283.34;5035470;28;20201;-75
2023/04/06 01:52:17;;;;;;;10.80;9.70;;;;;;;1.55;nan;98280.88;5035374;28;20226;-75
2023/04/06 01:54:44;;;;;;;13.43;10.33;;;;;;;1.57;nan;98275.47;5035255;28;20572;-75
2023/04/06 01:57:11;;;;;;;11.10;9.40;;;;;;;1.48;nan;98279.03;5035035;28;20229;-75
2023/04/06 01:59:38;;;;;;;12.50;10.07;;;;;;;1.50;nan;98282.31;5035009;28;20241;-75
2023/04/06 02:02:04;;;;;;;11.00;8.73;;;;;;;1.52;nan;98269.88;5034725;28;20242;-75
2023/04/06 02:04:31;;;;;;;11.77;8.93;;;;;;;1.52;nan;98275.94;5034912;28;20197;-75
2023/04/06 02:06:57;;;;;;;11.20;9.53;;;;;;;1.49;nan;98278.84;5035201;28;20285;-75
2023/04/06 02:09:23;;;;;;;12.37;9.17;;;;;;;1.50;nan;98279.69;5034701;28;20217;-75
2023/04/06 02:11:50;;;;;;;12.70;8.93;;;;;;;1.53;nan;98282.00;5035084;28;20296;-75
2023/04/06 02:14:16;;;;;;;13.57;9.53;;;;;;;1.44;nan;98277.72;5035056;28;20631;-75
2023/04/06 02:16:43;;;;;;;10.63;9.53;;;;;;;1.29;nan;98284.47;5035691;28;20312;-75
2023/04/06 02:19:09;;;;;;;13.17;9.60;;;;;;;1.32;nan;98276.31;5035404;28;20293;-75
2023/04/06 02:21:35;;;;;;;12.97;10.60;;;;;;;1.35;nan;98276.03;5035340;28;20305;-76
2023/04/06 02:24:02;;;;;;;14.33;10.00;;;;;;;1.29;nan;98279.25;5034747;28;20316;-75
2023/04/06 02:26:28;;;;;;;11.77;9.50;;;;;;;1.39;nan;98277.34;5034932;28;20665;-75
2023/04/06 02:28:55;;;;;;;12.77;9.80;;;;;;;1.33;nan;98275.34;5034746;28;20301;-75
2023/04/06 02:31:21;;;;;;;15.07;9.67;;;;;;;1.24;nan;98271.88;5034727;28;20606;-75
2023/04/06 02:33:47;;;;;;;12.83;10.20;;;;;;;1.20;nan;98274.94;5035134;28;20260;-75
2023/04/06 02:36:14;;;;;;;12.63;9.83;;;;;;;1.25;nan;98275.28;5034435;28;20268;-75
2023/04/06 02:38:41;;;;;;;11.33;9.33;;;;;;;1.27;nan;98271.56;5034254;28;20209;-75
2023/04/06 02:41:07;;;;;;;14.47;10.07;;;;;;;1.25;nan;98267.44;5034228;28;20300;-75
2023/04/06 02:43:33;;;;;;;11.90;10.17;;;;;;;1.18;nan;98275.13;5034354;28;20317;-75
2023/04/06 02:46:00;;;;;;;15.13;9.87;;;;;;;1.16;nan;98271.00;5034121;28;20297;-75
2023/04/06 02:48:26;;;;;;;11.30;9.57;;;;;;;1.14;nan;98268.56;5034363;28;20309;-75
2023/04/06 02:50:53;;;;;;;14.10;9.63;;;;;;;1.11;nan;98266.22;5034821;28;20296;-75
2023/04/06 02:53:19;;;;;;;12.77;9.77;;;;;;;1.14;nan;98259.88;5034365;28;20253;-75
2023/04/06 02:55:45;;;;;;;13.00;9.60;;;;;;;1.12;nan;98267.06;5034129;28;20653;-75
2023/04/06 02:58:12;;;;;;;12.53;9.97;;;;;;;1.09;nan;98267.38;5033685;28;20297;-75
2023/04/06 03:00:38;;;;;;;10.80;9.00;;;;;;;1.09;nan;98269.97;5033706;28;20237;-75
2023/04/06 03:03:05;;;;;;;11.87;9.63;;;;;;;1.01;nan;98268.13;5033491;28;20316;-75
2023/04/06 03:05:31;;;;;;;13.30;9.33;;;;;;;1.00;nan;98263.88;5033836;28;20208;-75
2023/04/06 03:07:58;;;;;;;11.37;9.43;;;;;;;0.97;nan;98268.59;5033582;28;20250;-75
2023/04/06 03:10:24;;;;;;;10.87;9.77;;;;;;;1.01;nan;98264.69;5033538;28;20261;-75
2023/04/06 03:12:51;;;;;;;14.00;9.93;;;;;;;1.01;nan;98262.91;5033470;28;20321;-75
2023/04/06 03:15:17;;;;;;;10.53;9.10;;;;;;;1.05;nan;98264.25;5033751;28;20296;-75
2023/04/06 03:17:44;;;;;;;11.80;9.50;;;;;;;1.10;nan;98264.59;5033697;28;20233;-75
2023/04/06 03:20:11;;;;;;;13.33;9.67;;;;;;;1.09;nan;98262.97;5033286;28;20760;-75
2023/04/06 03:22:37;;;;;;;11.90;9.10;;;;;;;1.03;nan;98255.69;5033674;28;20230;-75
2023/04/06 03:25:04;;;;;;;10.70;9.47;;;;;;;0.99;nan;98262.22;5033405;28;20786;-75
2023/04/06 03:27:30;;;;;;;11.43;9.67;;;;;;;0.97;nan;98261.56;5033594;28;20337;-75
2023/04/06 03:29:56;;;;;;;11.20;8.83;;;;;;;0.98;nan;98259.78;5033320;28;20300;-75
2023/04/06 03:32:23;;;;;;;10.33;8.67;;;;;;;0.98;nan;98265.00;5033339;28;20257;-75
2023/04/06 03:34:49;;;;;;;12.87;9.27;;;;;;;0.93;nan;98267.25;5033256;28;20252;-75
2023/04/06 03:37:16;;;;;;;12.60;9.27;;;;;;;0.93;nan;98267.25;5033199;28;20338;-75
2023/04/06 03:39:42;;;;;;;11.10;9.90;;;;;;;0.96;nan;98266.94;5033263;28;20244;-75
2023/04/06 03:42:09;;;;;;;11.27;9.07;;;;;;;0.87;nan;98267.88;5032825;28;20208;-75
2023/04/06 03:44:35;;;;;;;12.77;9.50;;;;;;;0.84;nan;98266.38;5033263;28;20206;-75
2023/04/06 03:47:02;;;;;;;10.50;9.40;;;;;;;0.90;nan;98262.34;5033732;28;20752;-74
2023/04/06 03:49:28;;;;;;;11.03;9.53;;;;;;;0.81;nan;98269.28;5033388;28;20210;-75
2023/04/06 03:51:55;;;;;;;12.17;9.47;;;;;;;0.84;nan;98276.00;5033303;28;20208;-75
2023/04/06 03:54:21;;;;;;;12.57;9.77;;;;;;;0.86;nan;98271.47;5033396;28;20655;-75
2023/04/06 03:56:47;;;;;;;10.47;9.30;;;;;;;0.83;nan;98271.75;5032887;28;20222;-75
2023/04/06 03:59:14;;;;;;;11.37;9.07;;;;;;;0.84;nan;98274.22;5033200;28;20237;-75
2023/04/06 04:01:41;;;;;;;11.47;9.10;;;;;;;0.79;nan;98276.50;5032575;28;20646;-75
2023/04/06 04:04:07;;;;;;;10.67;9.10;;;;;;;0.79;nan;98271.25;5032483;28;20784;-75
2023/04/06 04:06:36;;;;;;;12.50;9.17;;;;;;;0.73;nan;98271.03;5033054;28;20296;-75
2023/04/06 04:09:02;;;;;;;11.97;9.33;;;;;;;0.83;nan;98277.84;5032947;28;20681;-75
2023/04/06 04:11:29;;;;;;;13.17;9.80;;;;;;;0.85;nan;98280.31;5036929;28;20604;-75
2023/04/06 04:13:55;;;;;;;14.90;9.90;;;;;;;0.78;nan;98279.25;5036831;28;20225;-75
2023/04/06 04:16:22;;;;;;;13.37;9.73;;;;;;;0.77;nan;98285.47;5036763;28;20264;-75
2023/04/06 04:18:48;;;;;;;10.63;9.53;;;;;;;0.74;nan;98286.59;5037015;28;20365;-75
2023/04/06 04:21:15;;;;;;;11.10;9.53;;;;;;;0.76;nan;98286.44;5036478;28;20300;-75
2023/04/06 04:23:41;;;;;;;14.27;10.43;;;;;;;0.76;nan;98287.25;5036447;28;20312;-74
2023/04/06 04:26:08;;;;;;;9.83;8.83;;;;;;;0.79;nan;98291.34;5036605;28;20624;-75
2023/04/06 04:28:34;;;;;;;13.97;9.90;;;;;;;0.73;nan;98291.97;5036739;28;20312;-75
2023/04/06 04:31:01;;;;;;;10.30;8.97;;;;;;;0.71;nan;98294.75;5036779;28;20206;-75
2023/04/06 04:33:27;;;;;;;13.00;9.70;;;;;;;0.71;nan;98286.09;5036304;28;20895;-75
2023/04/06 04:35:54;;;;;;;12.97;9.57;;;;;;;0.68;nan;98294.22;5036241;28;20316;-75
2023/04/06 04:38:20;;;;;;;16.17;10.30;;;;;;;0.71;nan;98286.09;5036160;28;20213;-75
2023/04/06 04:40:47;;;;;;;12.93;9.50;;;;;;;0.71;nan;98292.13;5036373;28;20292;-75
2023/04/06 04:43:13;;;;;;;11.70;9.37;;;;;;;0.67;nan;98289.97;5035937;28;20257;-74
2023/04/06 04:45:40;;;;;;;15.03;9.70;;;;;;;0.69;nan;98283.63;5035763;28;20292;-74
2023/04/06 04:48:07;;;;;;;15.83;9.93;;;;;;;0.67;nan;98292.59;5035816;28;20252;-75
2023/04/06 04:50:34;;;;;;;13.20;9.13;;;;;;;0.67;nan;98292.59;5036587;28;20214;-75
2023/04/06 04:53:00;;;;;;;12.73;9.57;;;;;;;0.67;nan;98287.34;5035781;28;20728;-75
2023/04/06 04:55:27;;;;;;;13.23;9.77;;;;;;;0.66;nan;98290.91;5036223;28;20206;-75
2023/04/06 04:57:53;;;;;;;12.87;9.87;;;;;;;0.70;nan;98295.72;5035785;28;20233;-75
2023/04/06 05:00:20;;;;;;;12.27;9.07;;;;;;;0.64;nan;98290.25;5036038;28;20288;-75
2023/04/06 05:02:47;;;;;;;10.73;9.20;;;;;;;0.66;nan;98294.38;5035407;28;20234;-75
2023/04/06 05:05:13;;;;;;;12.67;9.30;;;;;;;0.66;nan;98290.91;5035888;28;20289;-75
2023/04/06 05:07:40;;;;;;;12.00;9.70;;;;;;;0.76;nan;98292.47;5035946;28;20225;-75
2023/04/06 05:10:07;;;;;;;12.60;9.00;;;;;;;0.70;nan;98293.09;5035823;28;20208;-75
2023/04/06 05:12:33;;;;;;;11.13;9.27;;;;;;;0.79;nan;98296.59;5035782;28;20257;-75
2023/04/06 05:15:00;;;;;;;9.80;8.73;;;;;;;0.87;nan;98296.66;5035848;28;20304;-75
2023/04/06 05:17:26;;;;;;;11.83;8.87;;;;;;;0.90;nan;98299.78;5035726;28;20279;-75
2023/04/06 05:19:53;;;;;;;15.93;9.47;;;;;;;0.93;nan;98298.66;5036000;28;20216;-75
2023/04/06 05:22:19;;;;;;;12.07;9.07;;;;;;;0.98;nan;98307.69;5034073;28;20254;-75
2023/04/06 05:24:46;;;;;;;14.70;9.53;;;;;;;1.04;nan;98314.13;5035344;28;20202;-75
2023/04/06 05:27:12;;;;;;;14.47;9.47;;;;;;;1.15;nan;98316.47;5035437;28;20252;-75
2023/04/06 05:29:39;;;;;;;10.10;8.83;;;;;;;1.15;nan;98313.88;5035386;28;20297;-75
2023/04/06 05:32:06;;;;;;;13.50;9.40;;;;;;;1.26;nan;98318.84;5034924;28;20238;-75
2023/04/06 05:34:32;;;;;;;11.83;9.60;;;;;;;1.23;nan;98313.91;5034807;28;20296;-75
2023/04/06 05:36:59;;;;;;;12.63;9.40;;;;;;;1.30;nan;98320.19;5034939;28;20222;-75
2023/04/06 05:39:26;;;;;;;9.83;8.70;;;;;;;1.36;nan;98325.63;5034762;28;20687;-75
2023/04/06 05:41:52;;;;;;;12.93;9.10;;;;;;;1.39;nan;98321.88;5034519;28;20241;-75
2023/04/06 05:44:19;;;;;;;12.20;8.80;;;;;;;1.51;nan;98316.22;5035007;28;20210;-75
2023/04/06 05:46:45;;;;;;;10.03;8.93;;;;;;;1.63;nan;98329.88;5035023;28;20229;-75
2023/04/06 05:49:12;;;;;;;9.53;8.57;;;;;;;1.63;nan;98324.63;5034708;28;20313;-75
2023/04/06 05:51:38;;;;;;;10.47;8.27;;;;;;;1.63;nan;98322.81;5034998;28;20300;-75
2023/04/06 05:54:05;;;;;;;17.07;8.60;;;;;;;1.77;nan;98326.66;5034953;28;20225;-75
2023/04/06 05:56:31;;;;;;;12.00;8.77;;;;;;;1.81;nan;98323.53;5034424;28;20316;-75
2023/04/06 05:58:58;;;;;;;10.70;8.20;;;;;;;1.92;nan;98323.28;5034417;28;20260;-75
2023/04/06 06:01:24;;;;;;;12.97;9.33;;;;;;;2.00;nan;98325.94;5034613;28;20300;-75
2023/04/06 06:03:51;;;;;;;10.80;8.43;;;;;;;2.05;nan;98322.81;5034230;28;20712;-75
2023/04/06 06:06:17;;;;;;;13.77;8.43;;;;;;;2.20;nan;98331.72;5034089;28;20212;-75
2023/04/06 06:08:44;;;;;;;11.03;8.17;;;;;;;2.20;nan;98327.28;5034079;28;20245;-75
2023/04/06 06:11:10;;;;;;;13.20;8.83;;;;;;;2.18;nan;98328.44;5033712;28;20691;-75
2023/04/06 06:13:37;;;;;;;10.77;8.57;;;;;;;2.18;nan;98331.06;5033986;28;20261;-75
2023/04/06 06:16:05;;;;;;;12.80;8.77;;;;;;;2.22;nan;98340.25;5035373;28;20317;-75
2023/04/06 06:18:31;;;;;;;12.50;9.20;;;;;;;2.37;nan;98333.41;5033589;28;20205;-73
2023/04/06 06:20:58;;;;;;;10.83;8.70;;;;;;;2.48;nan;98333.91;5034380;28;20626;-73
2023/04/06 06:23:25;;;;;;;10.30;8.23;;;;;;;2.44;nan;98329.97;5033787;28;20264;-73
2023/04/06 06:25:51;;;;;;;10.80;8.50;;;;;;;2.48;nan;98323.41;5033974;28;20692;-73
2023/04/06 06:28:17;;;;;;;11.47;9.57;;;;;;;2.67;nan;98330.97;5034378;28;20635;-73
2023/04/06 06:30:44;;;;;;;12.17;9.10;;;;;;;2.77;nan;98323.78;5033713;28;20293;-71
2023/04/06 06:33:10;;;;;;;9.70;8.37;;;;;;;2.79;nan;98328.84;5033280;28;20233;-72
2023/04/06 06:35:37;;;;;;;11.17;8.40;;;;;;;2.89;nan;98325.09;5031890;28;20245;-72
2023/04/06 06:38:05;;;;;;;15.00;8.43;;;;;;;2.86;nan;98330.69;5031865;28;20230;-72
2023/04/06 06:40:31;;;;;;;12.57;8.83;;;;;;;2.91;nan;98335.44;5031500;28;20210;-72
2023/04/06 06:42:58;;;;;;;12.70;8.20;;;;;;;3.05;nan;98334.75;5031684;28;20269;-72
2023/04/06 06:45:25;;;;;;;12.77;8.30;;;;;;;2.97;nan;98326.88;5031632;28;20213;-71
2023/04/06 06:47:52;;;;;;;10.57;7.93;;;;;;;3.11;nan;98337.56;5032309;28;20202;-72
2023/04/06 06:50:18;;;;;;;9.93;8.13;;;;;;;3.08;nan;98337.06;5033565;28;20309;-71
2023/04/06 06:52:45;;;;;;;11.03;7.63;;;;;;;3.21;nan;98345.28;5033834;28;20316;-72
2023/04/06 06:55:11;;;;;;;10.30;8.47;;;;;;;3.33;nan;98336.03;5033242;28;20298;-71
2023/04/06 06:57:38;;;;;;;12.80;8.03;;;;;;;3.37;nan;98340.81;5033230;28;20218;-71
2023/04/06 07:00:07;;;;;;;11.47;9.03;;;;;;;3.52;nan;98340.97;5033310;28;20305;-71
2023/04/06 07:02:35;;;;;;;12.40;8.93;;;;;;;3.57;nan;98342.06;5032799;28;20242;-72
2023/04/06 07:05:02;;;;;;;12.90;9.47;;;;;;;3.55;nan;98346.69;5033711;28;20190;-71
2023/04/06 07:07:28;;;;;;;15.03;8.83;;;;;;;3.60;nan;98343.53;5033602;28;20662;-72
2023/04/06 07:09:55;;;;;;;12.77;9.20;;;;;;;3.64;nan;98337.78;5033344;28;20229;-72
2023/04/06 07:12:21;;;;;;;12.67;8.60;;;;;;;3.78;nan;98336.25;5033359;28;20314;-71
2023/04/06 07:14:48;;;;;;;12.07;8.93;;;;;;;3.76;nan;98348.78;5033023;28;20202;-71
2023/04/06 07:17:14;;;;;;;11.17;8.87;;;;;;;3.82;nan;98342.81;5033136;28;20768;-72
2023/04/06 07:19:41;;;;;;;14.60;10.00;;;;;;;3.86;nan;98341.50;5033074;28;20210;-72
2023/04/06 07:22:08;;;;;;;9.87;8.00;;;;;;;3.99;nan;98345.25;5032957;28;20245;-72
2023/04/06 07:24:34;;;;;;;12.00;8.87;;;;;;;4.16;nan;98344.16;5033652;28;20245;-72
2023/04/06 07:27:01;;;;;;;11.43;8.17;;;;;;;4.13;nan;98346.31;5033215;28;20225;-72
2023/04/06 07:29:28;;;;;;;10.90;8.20;;;;;;;4.23;nan;98349.56;5033170;28;20205;-71
2023/04/06 07:31:55;;;;;;;9.63;8.63;;;;;;;4.44;nan;98347.16;5033127;28;20296;-72
2023/04/06 07:34:22;;;;;;;10.40;9.30;;;;;;;4.49;nan;98358.81;5033979;28;20206;-71
2023/04/06 07:36:49;;;;;;;13.17;8.83;;;;;;;4.58;nan;98344.59;5033095;28;20232;-72
2023/04/06 07:39:15;;;;;;;11.47;8.80;;;;;;;4.67;nan;98340.09;5033060;28;20289;-72
2023/04/06 07:41:42;;;;;;;13.87;9.03;;;;;;;4.66;nan;98341.91;5032752;28;20317;-71
2023/04/06 07:44:08;;;;;;;12.77;8.50;;;;;;;4.90;nan;98347.00;5032149;28;20317;-71
2023/04/06 07:46:35;;;;;;;14.47;9.57;;;;;;;4.91;nan;98347.81;5032836;28;20765;-72
2023/04/06 07:49:02;;;;;;;12.43;9.30;;;;;;;5.03;nan;98352.50;5033002;28;20304;-71
2023/04/06 07:51:28;;;;;;;13.57;9.10;;;;;;;5.13;nan;98339.91;5032990;28;20216;-71
2023/04/06 07:53:55;;;;;;;11.80;8.80;;;;;;;5.23;nan;98345.75;5032892;28;20237;-73
2023/04/06 07:56:22;;;;;;;11.37;9.43;;;;;;;5.18;nan;98339.34;5032499;28;20208;-72
2023/04/06 07:58:48;;;;;;;14.10;9.57;;;;;;;5.33;nan;98340.22;5032835;28;20320;-72
2023/04/06 08:01:14;;;;;;;12.43;8.80;;;;;;;5.28;nan;98339.91;5032976;28;20304;-72
2023/04/06 08:03:41;;;;;;;16.80;9.67;;;;;;;5.55;nan;98349.88;5032396;28;20272;-72
2023/04/06 08:06:07;;;;;;;11.67;8.77;;;;;;;5.68;nan;98347.44;5032584;28;20216;-71
2023/04/06 08:08:34;;;;;;;14.73;8.80;;;;;;;5.81;nan;98342.38;5032339;28;20633;-72
2023/04/06 08:11:02;;;;;;;13.83;8.97;;;;;;;6.07;nan;98342.75;5032916;28;20206;-72
2023/04/06 08:13:29;;;;;;;14.47;9.47;;;;;;;6.25;nan;98340.53;5032305;28;20313;-72
2023/04/06 08:15:56;;;;;;;17.13;9.47;;;;;;;6.15;nan;98343.47;5032829;28;20296;-72
2023/04/06 08:18:23;;;;;;;11.83;9.57;;;;;;;6.16;nan;98347.72;5032576;28;20221;-72
2023/04/06 08:20:50;;;;;;;13.13;9.40;;;;;;;6.15;nan;98347.94;5033610;28;20206;-72
2023/04/06 08:23:16;;;;;;;15.37;9.90;;;;;;;6.32;nan;98351.97;5032408;28;20240;-72
2023/04/06 08:25:43;;;;;;;16.30;9.50;;;;;;;6.32;nan;98351.97;5032668;28;20202;-72
2023/04/06 08:28:09;;;;;;;11.43;8.83;;;;;;;6.39;nan;98348.44;5032371;28;20208;-72
2023/04/06 08:30:37;;;;;;;12.40;9.07;;;;;;;6.61;nan;98344.00;5032657;28;20241;-72
2023/04/06 08:33:04;;;;;;;13.77;8.97;;;;;;;6.77;nan;98343.75;5032665;28;20320;-72
2023/04/06 08:35:30;;;;;;;13.83;9.53;;;;;;;7.03;nan;98344.84;5032419;28;20216;-72
2023/04/06 08:37:58;;;;;;;17.07;9.07;;;;;;;7.06;nan;98341.81;5032236;28;20716;-72
2023/04/06 08:40:25;;;;;;;12.03;9.10;;;;;;;7.15;nan;98339.88;5032191;28;20293;-72
2023/04/06 08:42:56;;;;;;;15.70;9.03;;;;;;;7.36;nan;98338.00;5032741;28;20225;-72
2023/04/06 08:45:23;;;;;;;10.70;8.73;;;;;;;7.47;nan;98340.13;5032537;28;20205;-71
2023/04/06 08:47:52;;;;;;;11.50;9.20;;;;;;;7.44;nan;98335.22;5032249;28;20729;-72
2023/04/06 08:50:19;;;;;;;11.17;8.50;;;;;;;7.61;nan;98336.53;5032722;28;20202;-72
2023/04/06 08:52:49;;;;;;;10.50;8.67;;;;;;;7.77;nan;98336.25;5032183;28;20262;-72
2023/04/06 08:55:17;;;;;;;12.07;8.73;;;;;;;7.65;nan;98337.81;5033045;28;20245;-71
2023/04/06 08:57:44;;;;;;;14.07;8.93;;;;;;;7.83;nan;98334.69;5036088;28;20263;-72
2023/04/06 09:00:11;;;;;;;12.93;8.87;;;;;;;8.00;nan;98328.03;5035809;28;20206;-72
2023/04/06 09:02:44;;;;;;;15.37;8.67;;;;;;;8.25;nan;98327.38;5035725;28;20273;-72
2023/04/06 09:05:11;;;;;;;9.83;8.30;;;;;;;8.41;nan;98327.03;5033802;28;20210;-72
2023/04/06 09:07:38;;;;;;;12.27;8.30;;;;;;;8.35;nan;98322.53;5015925;28;20233;-72
2023/04/06 09:10:08;;;;;;;9.80;8.03;;;;;;;8.43;nan;98321.53;5016012;28;20230;-72
2023/04/06 09:12:35;;;;;;;10.23;7.93;;;;;;;8.64;nan;98318.75;5015649;28;20226;-72
2023/04/06 09:15:02;;;;;;;12.43;8.37;;;;;;;8.50;nan;98317.06;5015601;28;20674;-72
2023/04/06 09:17:32;;;;;;;10.67;7.37;;;;;;;8.48;nan;98319.09;5015724;28;20233;-72
2023/04/06 09:19:59;;;;;;;12.67;7.70;;;;;;;8.68;nan;98319.97;5015514;28;20301;-72
2023/04/06 09:22:27;;;;;;;7.40;6.70;;;;;;;8.96;nan;98324.09;5015300;28;20235;-72
2023/04/06 09:24:54;;;;;;;10.93;7.40;;;;;;;9.04;nan;98308.00;5015236;28;20581;-72
2023/04/06 09:27:32;;;;;;;11.87;7.90;;;;;;;9.09;nan;98312.72;5016609;28;20229;-72
2023/04/06 09:30:13;;;;;;;9.00;7.23;;;;;;;8.83;nan;98315.31;5015568;28;20206;-72
2023/04/06 09:32:51;;;;;;;8.87;7.97;;;;;;;8.94;nan;98320.03;5015590;28;20237;-72
2023/04/06 09:35:19;;;;;;;9.27;7.40;;;;;;;9.08;nan;98317.19;5015146;28;20301;-73
2023/04/06 09:37:47;;;;;;;8.07;7.00;;;;;;;9.33;nan;98320.06;5015323;28;20644;-72
2023/04/06 09:40:17;;;;;;;9.33;7.40;;;;;;;9.26;nan;98308.63;5015410;28;20202;-73
2023/04/06 09:42:46;;;;;;;10.13;8.57;;;;;;;9.58;nan;98318.41;5015056;28;20229;-73
2023/04/06 09:45:13;;;;;;;10.67;8.10;;;;;;;9.56;nan;98310.63;5015011;28;20752;-72
2023/04/06 09:47:43;;;;;;;8.17;7.27;;;;;;;9.91;nan;98304.03;5015340;28;20230;-72
2023/04/06 09:50:12;;;;;;;8.03;7.20;;;;;;;10.22;nan;98304.16;5015296;28;20234;-72
2023/04/06 09:52:49;;;;;;;8.10;7.00;;;;;;;9.98;nan;98306.66;5014881;28;20314;-72
2023/04/06 09:55:25;;;;;;;7.30;6.47;;;;;;;10.24;nan;98299.47;5015178;28;20195;-72
2023/04/06 09:57:59;;;;;;;5.73;5.23;;;;;;;10.33;nan;98297.38;5015316;28;20214;-72
2023/04/06 10:00:27;;;;;;;7.17;5.30;;;;;;;10.69;nan;98303.72;5014857;28;20222;-73
2023/04/06 10:03:03;;;;;;;8.23;6.73;;;;;;;10.81;nan;98296.72;5014564;28;20316;-72
2023/04/06 10:05:44;;;;;;;7.27;6.57;;;;;;;10.62;nan;98296.81;5014666;28;20253;-72
2023/04/06 10:08:11;;;;;;;7.30;6.27;;;;;;;10.58;nan;98298.28;5013907;28;20183;-72
2023/04/06 10:10:38;;;;;;;7.83;6.67;;;;;;;10.71;nan;98296.38;5014407;28;20626;-72
2023/04/06 10:13:06;;;;;;;7.77;6.97;;;;;;;10.75;nan;98289.59;5014558;28;20222;-71
2023/04/06 10:15:33;;;;;;;8.60;7.33;;;;;;;10.65;nan;98294.56;5014482;28;20238;-72
2023/04/06 10:18:01;;;;;;;8.93;8.03;;;;;;;10.96;nan;98299.06;5014659;28;20265;-72
2023/04/06 10:20:32;;;;;;;8.90;8.00;;;;;;;10.82;nan;98290.34;5014912;28;20211;-72
2023/04/06 10:23:21;;;;;;;8.73;7.73;;;;;;;10.58;nan;98284.97;5014761;28;20628;-72
2023/04/06 10:25:58;;;;;;;9.37;7.73;;;;;;;11.13;nan;98286.88;5014616;28;20226;-72
2023/04/06 10:28:25;;;;;;;7.80;7.00;;;;;;;11.12;nan;98282.56;5014519;28;20236;-72
2023/04/06 10:30:59;;;;;;;7.97;7.27;;;;;;;10.99;nan;98287.97;5014200;28;20310;-71
2023/04/06 10:33:25;;;;;;;8.80;7.20;;;;;;;10.54;nan;98286.47;5014314;28;20230;-71
2023/04/06 10:35:52;;;;;;;8.03;7.03;;;;;;;10.54;nan;98279.28;5014330;28;20290;-71
2023/04/06 10:38:21;;;;;;;10.70;6.80;;;;;;;10.75;nan;98281.63;5014391;28;20276;-71
2023/04/06 10:40:49;;;;;;;7.27;6.33;;;;;;;11.13;nan;98279.69;5014160;28;20674;-72
2023/04/06 10:43:23;;;;;;;8.70;6.97;;;;;;;11.44;nan;98284.13;5014249;28;20318;-72
2023/04/06 10:45:57;;;;;;;7.97;6.63;;;;;;;11.60;nan;98285.47;5014052;28;20245;-72
2023/04/06 10:48:25;;;;;;;7.13;6.43;;;;;;;11.63;nan;98275.19;5013693;28;20289;-72
2023/04/06 10:50:55;;;;;;;9.90;6.90;;;;;;;11.36;nan;98271.13;5014008;28;20206;-72
2023/04/06 10:53:28;;;;;;;8.00;6.93;;;;;;;10.55;nan;98266.81;5014487;28;20226;-71
2023/04/06 10:55:58;;;;;;;9.07;6.93;;;;;;;11.38;nan;98269.03;5013882;28;20733;-71
2023/04/06 10:58:27;;;;;;;6.93;6.23;;;;;;;11.44;nan;98268.16;4996205;28;20309;-71
2023/04/06 11:00:55;;;;;;;6.57;5.97;;;;;;;11.64;nan;98268.84;5013795;28;20639;-72
2023/04/06 11:03:22;;;;;;;7.53;6.50;;;;;;;11.64;nan;98274.16;5013426;28;20654;-72
2023/04/06 11:05:50;;;;;;;7.00;6.30;;;;;;;11.65;nan;98269.63;5013931;28;20299;-72
2023/04/06 11:08:23;;;;;;;6.63;5.70;;;;;;;11.62;nan;98264.75;5013085;28;20738;-71
2023/04/06 11:10:50;;;;;;;8.10;6.10;;;;;;;11.61;nan;98271.94;5013683;28;20230;-71
2023/04/06 11:13:17;;;;;;;7.33;6.60;;;;;;;11.22;nan;98264.28;5013607;28;20233;-71
2023/04/06 11:15:43;;;;;;;7.23;6.07;;;;;;;10.93;nan;98263.09;5013501;28;20213;-72
2023/04/06 11:18:10;;;;;;;7.07;6.07;;;;;;;10.60;nan;98265.13;5013418;28;20257;-71
2023/04/06 11:20:37;;;;;;;8.00;5.80;;;;;;;11.39;nan;98254.69;5013404;28;20214;-71
2023/04/06 11:23:03;;;;;;;7.80;6.10;;;;;;;11.58;nan;98248.34;5013396;28;20336;-71
2023/04/06 11:25:32;;;;;;;6.60;5.83;;;;;;;11.79;nan;98249.81;5012942;28;20261;-71
2023/04/06 11:27:59;;;;;;;6.73;5.20;;;;;;;11.74;nan;98242.50;5013189;28;20242;-72
2023/04/06 11:30:26;;;;;;;6.10;5.50;;;;;;;11.72;nan;98247.25;5013466;28;20298;-72
2023/04/06 11:32:52;;;;;;;7.30;6.60;;;;;;;11.47;nan;98238.44;5013370;28;20317;-71
2023/04/06 11:35:25;;;;;;;6.43;5.83;;;;;;;11.47;nan;98233.13;5013127;28;20294;-71
2023/04/06 11:37:52;;;;;;;6.80;6.10;;;;;;;11.46;nan;98228.84;5013053;28;20666;-72
2023/04/06 11:40:24;;;;;;;6.00;5.40;;;;;;;11.99;nan;98232.59;5013388;28;20303;-72
2023/04/06 11:42:55;;;;;;;7.03;6.33;;;;;;;10.90;nan;98223.59;5013323;28;20226;-73
2023/04/06 11:45:22;;;;;;;6.17;5.40;;;;;;;11.40;nan;98226.25;5013837;28;20301;-72
2023/04/06 11:47:59;;;;;;;7.10;5.07;;;;;;;11.84;nan;98224.16;5013422;28;20237;-72
2023/04/06 11:50:25;;;;;;;7.17;5.83;;;;;;;11.72;nan;98222.44;5013394;28;20186;-72
2023/04/06 11:53:02;;;;;;;7.03;5.60;;;;;;;12.10;nan;98220.34;5012912;28;20321;-73